Hauptseite
METAR-TAF:

METAR-TAF

Flughäfen :

Flughafen Touquet-Côte d’Opale

Le Touquet, Frankreich

Breite: 50-30-53N, Länge: 001-37-39E, Höhe: 6 m

Beobachtung

Neuester Wetterbericht von vor 39 Minuten, um 01:30 UTC
Wind 3 kt aus Süd/Südost
Temperatur 10°C
Luftfeuchtigkeit 93%
Luftdruck 1033 hPa
Sichtweite: 9000 m

METAR: LFAT 250130Z AUTO 16003KT 9000 NSC 10/09 Q1033

Zeit: 04:09 (02:09 UTC)


TAF: fehlend

Wetterbeobachtungen und Prognosen von mehr als 4000 Flughäfen (METAR und TAF Bericht).

Die verfügbaren Stationen werden durch gelbe und rote Markierungen auf der Karte dargestellt.

Führen Sie die Maus auf sie, um den Namen der Station zu sehen.

Darauf klicken, um die Beobachtung von Wetterbeobachtungen und Prognosen zu sehen.

Um die Karte zu ändern : klicken Sie auf den grünen Tasten mit einem schwarzen Kreuz Zum Vergrößern, auf den grünen Button mit einem Gedankenstrich zu verkleinern, oder auf die grünen Pfeile für benachbarte Karten.


METAR-TAF: